createdAt,value
2022-08-19T00:01:30.537Z,11.25
2022-08-19T00:04:01.126Z,13.93
2022-08-19T00:06:31.104Z,16.77
2022-08-19T00:09:01.271Z,16.50
2022-08-19T00:11:30.061Z,16.80
2022-08-19T00:13:59.886Z,16.25
2022-08-19T00:16:28.420Z,16.83
2022-08-19T00:18:57.752Z,18.95
2022-08-19T00:21:27.596Z,20.20
2022-08-19T00:23:57.755Z,23.48
2022-08-19T00:26:26.460Z,23.02
2022-08-19T00:28:54.644Z,24.13
2022-08-19T00:31:26.091Z,23.98
2022-08-19T00:33:54.179Z,23.95
2022-08-19T00:36:22.980Z,23.00
2022-08-19T00:38:52.678Z,22.98
2022-08-19T00:41:22.758Z,23.90
2022-08-19T00:44:04.713Z,24.88
2022-08-19T00:46:37.488Z,24.00
2022-08-19T00:49:16.425Z,26.77
2022-08-19T00:51:46.784Z,29.65
2022-08-19T00:54:15.102Z,28.83
2022-08-19T00:56:43.675Z,28.48
2022-08-19T00:59:12.399Z,29.02
2022-08-19T01:01:44.196Z,27.02
2022-08-19T01:04:12.474Z,28.92
2022-08-19T01:06:42.001Z,30.05
2022-08-19T01:09:10.613Z,27.95
2022-08-19T01:11:45.807Z,30.27
2022-08-19T01:14:14.510Z,31.30
2022-08-19T01:16:45.132Z,32.72
2022-08-19T01:19:20.976Z,33.33
2022-08-19T01:21:54.203Z,33.97
2022-08-19T01:24:23.649Z,30.60
2022-08-19T01:26:52.025Z,33.95
2022-08-19T01:29:20.086Z,31.38
2022-08-19T01:31:50.124Z,36.20
2022-08-19T01:34:18.148Z,31.63
2022-08-19T01:36:50.135Z,31.23
2022-08-19T01:39:21.618Z,34.47
2022-08-19T01:41:51.471Z,34.55
2022-08-19T01:44:24.478Z,35.33
2022-08-19T01:46:53.936Z,33.20
2022-08-19T01:49:24.214Z,31.92
2022-08-19T01:51:53.140Z,31.58
2022-08-19T01:54:27.741Z,31.63
2022-08-19T01:57:02.262Z,31.35
2022-08-19T01:59:30.459Z,31.73
2022-08-19T02:01:58.856Z,31.27
2022-08-19T02:04:27.211Z,28.83
2022-08-19T02:06:55.515Z,31.48
2022-08-19T02:09:23.588Z,29.83
2022-08-19T02:11:51.716Z,29.58
2022-08-19T02:14:21.184Z,28.38
2022-08-19T02:16:49.465Z,27.88
2022-08-19T02:19:17.553Z,28.67
2022-08-19T02:21:45.847Z,29.77
2022-08-19T02:24:14.258Z,29.77
2022-08-19T02:26:42.442Z,30.55
2022-08-19T02:29:10.521Z,27.83
2022-08-19T02:31:39.913Z,27.88
2022-08-19T02:34:08.085Z,29.67
2022-08-19T02:36:36.242Z,27.90
2022-08-19T02:39:09.549Z,29.30
2022-08-19T02:41:37.832Z,29.08
2022-08-19T02:44:30.589Z,26.90
2022-08-19T02:46:56.942Z,29.27
2022-08-19T02:49:24.967Z,26.58
2022-08-19T02:51:53.043Z,26.73
2022-08-19T02:54:21.169Z,27.77
2022-08-19T02:56:49.287Z,29.42
2022-08-19T02:59:17.348Z,31.70
2022-08-19T03:01:48.254Z,30.08
2022-08-19T03:04:18.228Z,29.85
2022-08-19T03:06:48.446Z,28.75
2022-08-19T03:09:17.440Z,30.15
2022-08-19T03:11:45.607Z,27.13
2022-08-19T03:14:15.415Z,28.30
2022-08-19T03:16:46.394Z,29.10
2022-08-19T03:19:15.169Z,27.42
2022-08-19T03:21:45.847Z,27.75
2022-08-19T03:24:15.591Z,28.98
2022-08-19T03:26:46.305Z,27.80
2022-08-19T03:29:15.021Z,29.60
2022-08-19T03:31:54.077Z,29.00
2022-08-19T03:34:27.128Z,27.08
2022-08-19T03:36:57.546Z,25.98
2022-08-19T03:39:26.924Z,28.98
2022-08-19T03:42:38.407Z,25.08
2022-08-19T03:44:46.627Z,28.02
2022-08-19T03:47:17.738Z,24.08
2022-08-19T03:49:46.686Z,25.92
2022-08-19T03:52:16.563Z,27.92
2022-08-19T03:54:44.937Z,29.15
2022-08-19T03:57:13.082Z,26.48
2022-08-19T03:59:41.157Z,26.20
2022-08-19T04:02:11.791Z,23.75
2022-08-19T04:04:41.435Z,23.40
2022-08-19T04:07:10.719Z,25.08
2022-08-19T04:09:40.170Z,23.83
2022-08-19T04:12:09.894Z,19.70
2022-08-19T04:14:37.962Z,23.00
2022-08-19T04:17:06.718Z,22.35
2022-08-19T04:19:35.694Z,24.80
2022-08-19T04:22:04.356Z,24.95
2022-08-19T04:24:32.837Z,21.75
2022-08-19T04:27:03.672Z,25.40
2022-08-19T04:29:32.061Z,22.85
2022-08-19T04:32:09.070Z,22.05
2022-08-19T04:35:02.211Z,27.85
2022-08-19T04:37:29.449Z,23.65
2022-08-19T04:40:20.513Z,21.00
2022-08-19T04:42:49.992Z,27.42
2022-08-19T04:45:18.026Z,19.67
2022-08-19T04:47:47.425Z,23.33
2022-08-19T04:50:26.889Z,24.67
2022-08-19T04:52:56.520Z,24.58
2022-08-19T04:55:26.526Z,20.40
2022-08-19T04:57:56.696Z,25.48
2022-08-19T05:00:24.894Z,22.42
2022-08-19T05:02:53.070Z,20.10
2022-08-19T05:05:21.818Z,21.48
2022-08-19T05:07:50.027Z,25.27
2022-08-19T05:10:18.144Z,20.98
2022-08-19T05:12:46.194Z,20.98
2022-08-19T05:15:15.845Z,22.92
2022-08-19T05:18:04.205Z,20.60
2022-08-19T05:20:52.109Z,17.02
2022-08-19T05:23:22.828Z,16.23
2022-08-19T05:25:52.549Z,17.52
2022-08-19T05:28:21.179Z,17.77
2022-08-19T05:30:51.862Z,17.75
2022-08-19T05:33:20.294Z,14.57
2022-08-19T05:35:49.329Z,15.55
2022-08-19T05:38:17.922Z,15.00
2022-08-19T05:40:47.624Z,15.02
2022-08-19T05:43:17.347Z,18.20
2022-08-19T05:45:46.463Z,17.88
2022-08-19T05:48:21.443Z,17.70
2022-08-19T05:50:51.293Z,18.38
2022-08-19T05:53:19.586Z,16.10
2022-08-19T05:55:47.622Z,16.27
2022-08-19T05:58:15.733Z,18.40
2022-08-19T06:00:45.929Z,19.30
2022-08-19T06:03:15.369Z,19.10
2022-08-19T06:05:51.708Z,16.55
2022-08-19T06:08:33.762Z,17.60
2022-08-19T06:11:15.290Z,16.42
2022-08-19T06:13:43.476Z,16.58
2022-08-19T06:16:11.668Z,15.90
2022-08-19T06:18:41.101Z,14.88
2022-08-19T06:21:09.212Z,14.32
2022-08-19T06:23:37.244Z,12.93
2022-08-19T06:26:05.343Z,14.48
2022-08-19T06:28:34.521Z,14.63
2022-08-19T06:31:08.712Z,17.08
2022-08-19T06:33:36.901Z,14.32
2022-08-19T06:36:06.847Z,16.00
2022-08-19T06:38:35.361Z,16.40
2022-08-19T06:41:07.550Z,16.45
2022-08-19T06:43:38.090Z,15.20
2022-08-19T06:46:14.686Z,11.85
2022-08-19T06:48:45.159Z,12.13
2022-08-19T06:51:19.574Z,11.98
2022-08-19T06:53:48.170Z,10.18
2022-08-19T06:56:18.715Z,10.65
2022-08-19T06:58:47.677Z,11.93
2022-08-19T07:01:18.212Z,10.57
2022-08-19T07:03:47.384Z,9.98
2022-08-19T07:06:43.413Z,11.23
2022-08-19T07:09:10.454Z,11.15
2022-08-19T07:11:40.504Z,10.00
2022-08-19T07:14:16.699Z,10.60
2022-08-19T07:16:48.762Z,10.80
2022-08-19T07:19:18.670Z,9.57
2022-08-19T07:21:50.462Z,8.07
2022-08-19T07:24:19.523Z,9.85
2022-08-19T07:26:51.949Z,8.15
2022-08-19T07:29:25.639Z,10.85
2022-08-19T07:32:00.241Z,8.00
2022-08-19T07:34:34.195Z,7.70
2022-08-19T07:37:04.780Z,9.90
2022-08-19T07:39:35.036Z,7.47
2022-08-19T07:42:07.528Z,8.57
2022-08-19T07:44:35.925Z,11.18
2022-08-19T07:47:05.008Z,7.70
2022-08-19T07:49:33.163Z,10.13
2022-08-19T07:52:06.108Z,7.55
2022-08-19T07:54:36.582Z,7.35
2022-08-19T07:57:05.390Z,7.88
2022-08-19T07:59:34.252Z,9.02
2022-08-19T08:02:03.186Z,8.23
2022-08-19T08:04:50.682Z,7.60
2022-08-19T08:07:37.641Z,7.45
2022-08-19T08:10:08.568Z,8.48
2022-08-19T08:13:09.446Z,7.35
2022-08-19T08:15:43.120Z,7.47
2022-08-19T08:18:12.644Z,7.20
2022-08-19T08:20:42.607Z,8.52
2022-08-19T08:23:27.420Z,8.60
2022-08-19T08:25:58.013Z,6.72
2022-08-19T08:28:29.624Z,8.95
2022-08-19T08:31:09.697Z,8.65
2022-08-19T08:33:38.924Z,8.15
2022-08-19T08:36:07.359Z,8.23
2022-08-19T08:38:41.590Z,7.60
2022-08-19T08:41:20.501Z,8.10
2022-08-19T08:43:53.003Z,8.88
2022-08-19T08:46:31.041Z,8.95
2022-08-19T08:49:08.325Z,9.07
2022-08-19T08:54:20.132Z,6.50
2022-08-19T08:56:49.558Z,7.63
2022-08-19T08:59:26.412Z,7.28
2022-08-19T09:01:54.546Z,7.93
2022-08-19T09:04:23.878Z,6.75
2022-08-19T09:06:58.651Z,7.18
2022-08-19T09:09:33.441Z,7.15
2022-08-19T09:12:11.981Z,8.05
2022-08-19T09:14:50.801Z,6.32
2022-08-19T09:17:21.956Z,7.95
2022-08-19T09:19:55.262Z,4.85
2022-08-19T09:22:25.534Z,5.18
2022-08-19T09:24:58.117Z,5.28
2022-08-19T09:27:41.746Z,5.88
2022-08-19T09:30:23.138Z,4.57
2022-08-19T09:32:53.535Z,7.50
2022-08-19T09:35:23.647Z,4.97
2022-08-19T09:37:57.569Z,5.97
2022-08-19T09:40:31.938Z,7.25
2022-08-19T09:43:10.059Z,7.00
2022-08-19T09:45:41.281Z,6.22
2022-08-19T09:48:09.626Z,7.80
2022-08-19T09:50:51.311Z,6.10
2022-08-19T09:53:20.635Z,7.25
2022-08-19T09:55:50.296Z,6.25
2022-08-19T09:58:20.495Z,6.30
2022-08-19T10:00:53.389Z,6.32
2022-08-19T10:03:21.522Z,5.90
2022-08-19T10:05:55.300Z,6.38
2022-08-19T10:08:26.685Z,6.93
2022-08-19T10:10:59.243Z,7.05
2022-08-19T10:13:29.457Z,6.93
2022-08-19T10:15:59.300Z,9.80
2022-08-19T10:18:27.382Z,6.97
2022-08-19T10:21:09.486Z,6.40
2022-08-19T10:23:41.418Z,6.85
2022-08-19T10:26:10.949Z,8.05
2022-08-19T10:28:39.364Z,6.75
2022-08-19T10:31:09.750Z,6.70
2022-08-19T10:33:53.563Z,5.00
2022-08-19T10:36:24.518Z,4.85
2022-08-19T10:38:57.015Z,5.72
2022-08-19T10:41:30.154Z,4.15
2022-08-19T10:44:04.521Z,4.00
2022-08-19T10:46:34.333Z,4.30
2022-08-19T10:49:03.491Z,4.70
2022-08-19T10:51:49.600Z,4.20
2022-08-19T10:54:31.377Z,4.40
2022-08-19T10:57:01.678Z,4.68
2022-08-19T10:59:35.759Z,5.18
2022-08-19T11:02:06.595Z,4.50
2022-08-19T11:04:35.843Z,5.68
2022-08-19T11:07:05.512Z,5.03
2022-08-19T11:09:38.851Z,4.90
2022-08-19T11:12:09.608Z,5.30
2022-08-19T11:14:38.929Z,5.18
2022-08-19T11:17:08.407Z,6.40
2022-08-19T11:19:37.268Z,8.73
2022-08-19T11:22:05.709Z,8.40
2022-08-19T11:24:33.910Z,8.32
2022-08-19T11:27:10.076Z,8.05
2022-08-19T11:29:40.777Z,8.05
2022-08-19T11:32:13.827Z,8.35
2022-08-19T11:34:42.399Z,7.78
2022-08-19T11:37:10.607Z,7.97
2022-08-19T11:39:39.901Z,7.93
2022-08-19T11:42:23.741Z,7.80
2022-08-19T11:44:52.290Z,7.53
2022-08-19T11:47:21.254Z,6.85
2022-08-19T11:49:49.524Z,7.22
2022-08-19T11:52:17.773Z,6.15
2022-08-19T11:54:45.837Z,7.32
2022-08-19T11:57:17.793Z,7.05
2022-08-19T11:59:50.864Z,7.00
2022-08-19T12:02:20.021Z,5.85
2022-08-19T12:04:48.399Z,5.85
2022-08-19T12:07:16.685Z,6.22
2022-08-19T12:09:45.033Z,5.57
2022-08-19T12:12:18.205Z,5.35
2022-08-19T12:14:47.378Z,4.22
2022-08-19T12:17:15.537Z,4.20
2022-08-19T12:19:43.581Z,4.28
2022-08-19T12:22:11.675Z,4.85
2022-08-19T12:24:39.732Z,4.03
2022-08-19T12:27:09.977Z,3.60
2022-08-19T12:29:42.431Z,3.95
2022-08-19T12:32:12.253Z,3.50
2022-08-19T12:34:41.379Z,4.03
2022-08-19T12:37:10.201Z,3.15
2022-08-19T12:39:40.185Z,3.05
2022-08-19T12:42:10.017Z,3.78
2022-08-19T12:44:38.877Z,3.33
2022-08-19T12:47:14.389Z,3.75
2022-08-19T12:49:53.339Z,4.00
2022-08-19T12:52:24.509Z,3.05
2022-08-19T12:54:53.830Z,2.70
2022-08-19T12:57:31.431Z,2.88
2022-08-19T13:00:00.722Z,2.67
2022-08-19T13:02:30.231Z,2.80
2022-08-19T13:04:59.497Z,2.60
2022-08-19T13:07:27.690Z,2.83
2022-08-19T13:09:55.750Z,2.67
2022-08-19T13:12:27.535Z,2.60
2022-08-19T13:14:56.969Z,2.38
2022-08-19T13:17:25.093Z,3.13
2022-08-19T13:19:54.509Z,2.30
2022-08-19T13:22:22.666Z,1.92
2022-08-19T13:24:50.770Z,2.30
2022-08-19T13:27:18.923Z,2.60
2022-08-19T13:30:04.614Z,2.15
2022-08-19T13:32:50.191Z,2.10
2022-08-19T13:35:20.564Z,2.58
2022-08-19T13:37:48.712Z,2.05
2022-08-19T13:40:20.008Z,1.83
2022-08-19T13:42:50.377Z,2.72
2022-08-19T13:45:20.606Z,2.30
2022-08-19T13:47:49.910Z,2.63
2022-08-19T13:50:22.750Z,4.65
2022-08-19T13:52:50.908Z,6.28
2022-08-19T13:55:24.995Z,4.65
2022-08-19T13:57:54.041Z,6.07
2022-08-19T14:00:25.593Z,4.30
2022-08-19T14:02:56.424Z,4.90
2022-08-19T14:05:28.059Z,4.97
2022-08-19T14:07:56.534Z,5.35
2022-08-19T14:10:26.003Z,4.20
2022-08-19T14:12:56.724Z,2.85
2022-08-19T14:15:25.187Z,2.22
2022-08-19T14:17:53.896Z,2.58
2022-08-19T14:20:22.201Z,3.03
2022-08-19T14:22:56.689Z,2.28
2022-08-19T14:25:28.721Z,3.28
2022-08-19T14:27:57.520Z,3.15
2022-08-19T14:30:27.751Z,2.65
2022-08-19T14:32:56.263Z,3.00
2022-08-19T14:35:24.650Z,3.20
2022-08-19T14:37:56.646Z,2.78
2022-08-19T14:40:28.119Z,2.67
2022-08-19T14:43:00.109Z,2.35
2022-08-19T14:45:29.490Z,4.35
2022-08-19T14:47:58.016Z,2.58
2022-08-19T14:50:26.061Z,2.38
2022-08-19T14:53:11.856Z,2.10
2022-08-19T14:55:44.469Z,2.47
2022-08-19T14:58:29.486Z,1.63
2022-08-19T15:01:00.470Z,1.42
2022-08-19T15:03:29.777Z,1.70
2022-08-19T15:05:58.910Z,1.65
2022-08-19T15:08:30.369Z,1.70
2022-08-19T15:10:59.314Z,3.20
2022-08-19T15:13:29.891Z,1.42
2022-08-19T15:15:59.101Z,1.35
2022-08-19T15:18:27.484Z,1.40
2022-08-19T15:20:55.931Z,1.52
2022-08-19T15:23:24.418Z,1.58
2022-08-19T15:25:56.539Z,1.65
2022-08-19T15:28:25.338Z,2.28
2022-08-19T15:30:54.266Z,2.13
2022-08-19T15:33:22.383Z,1.88
2022-08-19T15:35:52.035Z,2.28
2022-08-19T15:38:22.353Z,3.20
2022-08-19T15:40:51.625Z,3.40
2022-08-19T15:43:23.187Z,5.57
2022-08-19T15:45:51.246Z,6.38
2022-08-19T15:48:19.349Z,3.65
2022-08-19T15:50:47.528Z,3.83
2022-08-19T15:53:15.744Z,2.30
2022-08-19T15:55:48.199Z,4.38
2022-08-19T15:58:35.113Z,2.78
2022-08-19T16:01:27.003Z,3.10
2022-08-19T16:04:15.937Z,2.28
2022-08-19T16:06:47.273Z,5.05
2022-08-19T16:09:16.602Z,2.33
2022-08-19T16:11:46.367Z,2.40
2022-08-19T16:14:15.581Z,2.75
2022-08-19T16:16:46.764Z,2.50
2022-08-19T16:19:16.795Z,2.35
2022-08-19T16:21:46.851Z,2.70
2022-08-19T16:24:16.931Z,2.45
2022-08-19T16:26:46.374Z,2.65
2022-08-19T16:29:17.871Z,2.45
2022-08-19T16:32:04.127Z,2.80
2022-08-19T16:34:33.853Z,2.20
2022-08-19T16:37:03.065Z,2.97
2022-08-19T16:39:31.786Z,2.78
2022-08-19T16:42:01.145Z,3.10
2022-08-19T16:44:30.239Z,3.13
2022-08-19T16:46:59.741Z,3.05
2022-08-19T16:49:55.280Z,2.58
2022-08-19T16:52:21.051Z,2.20
2022-08-19T16:54:52.799Z,2.83
2022-08-19T16:57:23.918Z,2.45
2022-08-19T16:59:52.956Z,1.70
2022-08-19T17:02:23.511Z,2.25
2022-08-19T17:04:59.789Z,2.88
2022-08-19T17:07:28.725Z,2.55
2022-08-19T17:09:57.663Z,2.92
2022-08-19T17:12:31.685Z,3.88
2022-08-19T17:15:01.499Z,3.03
2022-08-19T17:17:30.553Z,2.92
2022-08-19T17:20:02.141Z,3.95
2022-08-19T17:22:30.422Z,3.85
2022-08-19T17:24:59.017Z,2.35
2022-08-19T17:27:31.459Z,3.17
2022-08-19T17:30:00.992Z,2.05
2022-08-19T17:32:29.472Z,4.25
2022-08-19T17:34:59.094Z,3.47
2022-08-19T17:37:28.164Z,2.38
2022-08-19T17:39:56.775Z,2.90
2022-08-19T17:42:25.067Z,3.80
2022-08-19T17:44:53.311Z,4.25
2022-08-19T17:47:21.472Z,3.80
2022-08-19T17:49:50.019Z,3.70
2022-08-19T17:52:19.824Z,3.25
2022-08-19T17:54:48.304Z,3.22
2022-08-19T17:57:16.626Z,4.07
2022-08-19T17:59:45.017Z,3.97
2022-08-19T18:02:13.821Z,4.53
2022-08-19T18:04:46.844Z,4.50
2022-08-19T18:07:21.389Z,5.78
2022-08-19T18:09:52.711Z,3.65
2022-08-19T18:12:24.671Z,3.75
2022-08-19T18:14:53.535Z,4.15
2022-08-19T18:17:23.274Z,3.35
2022-08-19T18:19:51.764Z,3.15
2022-08-19T18:22:26.670Z,3.30
2022-08-19T18:24:57.489Z,3.42
2022-08-19T18:27:26.403Z,2.97
2022-08-19T18:29:59.585Z,2.70
2022-08-19T18:32:29.116Z,3.58
2022-08-19T18:34:57.410Z,3.50
2022-08-19T18:37:27.140Z,2.88
2022-08-19T18:40:15.628Z,3.03
2022-08-19T18:43:02.182Z,2.45
2022-08-19T18:45:48.424Z,5.15
2022-08-19T18:48:34.300Z,3.95
2022-08-19T18:51:03.250Z,4.28
2022-08-19T18:53:35.648Z,3.08
2022-08-19T18:56:05.787Z,2.75
2022-08-19T18:58:35.044Z,4.55
2022-08-19T19:01:10.873Z,4.45
2022-08-19T19:03:41.595Z,2.83
2022-08-19T19:06:10.143Z,3.65
2022-08-19T19:08:38.846Z,3.08
2022-08-19T19:11:08.676Z,2.08
2022-08-19T19:13:39.808Z,1.92
2022-08-19T19:16:09.620Z,3.15
2022-08-19T19:18:37.848Z,1.63
2022-08-19T19:21:06.536Z,1.50
2022-08-19T19:23:34.732Z,1.73
2022-08-19T19:26:02.913Z,1.52
2022-08-19T19:28:32.447Z,1.90
2022-08-19T19:31:00.738Z,2.10
2022-08-19T19:33:29.454Z,2.25
2022-08-19T19:35:57.642Z,1.30
2022-08-19T19:38:25.985Z,1.73
2022-08-19T19:40:54.527Z,2.17
2022-08-19T19:43:22.856Z,1.30
2022-08-19T19:45:52.375Z,2.35
2022-08-19T19:48:20.526Z,1.10
2022-08-19T19:50:56.038Z,1.10
2022-08-19T19:53:26.071Z,1.90
2022-08-19T19:55:58.819Z,1.30
2022-08-19T19:58:28.538Z,1.42
2022-08-19T20:00:59.578Z,1.67
2022-08-19T20:03:32.404Z,2.72
2022-08-19T20:06:01.202Z,3.50
2022-08-19T20:08:47.450Z,2.15
2022-08-19T20:11:29.035Z,3.58
2022-08-19T20:13:57.098Z,3.88
2022-08-19T20:16:26.634Z,3.03
2022-08-19T20:18:55.655Z,3.38
2022-08-19T20:21:27.102Z,5.50
2022-08-19T20:24:09.554Z,2.35
2022-08-19T20:26:38.730Z,2.17
2022-08-19T20:29:13.674Z,1.80
2022-08-19T20:31:59.117Z,1.73
2022-08-19T20:34:28.787Z,2.53
2022-08-19T20:36:57.195Z,1.95
2022-08-19T20:39:25.357Z,2.10
2022-08-19T20:41:56.367Z,2.10
2022-08-19T20:44:25.764Z,2.03
2022-08-19T20:46:56.783Z,2.67
2022-08-19T20:49:28.275Z,2.25
2022-08-19T20:51:58.417Z,3.58
2022-08-19T20:54:27.088Z,2.28
2022-08-19T20:56:55.321Z,2.17
2022-08-19T20:59:25.839Z,2.55
2022-08-19T21:01:54.589Z,6.30
2022-08-19T21:04:23.082Z,3.15
2022-08-19T21:06:52.625Z,1.90
2022-08-19T21:09:20.784Z,2.55
2022-08-19T21:11:48.969Z,3.47
2022-08-19T21:14:17.501Z,3.25
2022-08-19T21:16:46.202Z,3.10
2022-08-19T21:19:14.679Z,2.75
2022-08-19T21:21:42.931Z,2.30
2022-08-19T21:24:12.463Z,2.20
2022-08-19T21:26:41.472Z,2.33
2022-08-19T21:29:09.715Z,3.80
2022-08-19T21:31:37.896Z,1.98
2022-08-19T21:34:06.356Z,2.03
2022-08-19T21:36:34.498Z,5.15
2022-08-19T21:39:03.048Z,2.33
2022-08-19T21:41:32.649Z,2.10
2022-08-19T21:44:01.378Z,5.43
2022-08-19T21:46:29.622Z,1.90
2022-08-19T21:48:57.754Z,2.25
2022-08-19T21:51:25.933Z,2.30
2022-08-19T21:53:54.531Z,3.97
2022-08-19T21:56:23.026Z,2.67
2022-08-19T21:58:52.720Z,3.80
2022-08-19T22:01:20.967Z,3.38
2022-08-19T22:03:49.402Z,2.83
2022-08-19T22:06:19.885Z,2.55
2022-08-19T22:08:48.098Z,3.25
2022-08-19T22:11:17.098Z,2.55
2022-08-19T22:13:45.423Z,3.42
2022-08-19T22:16:15.547Z,3.60
2022-08-19T22:18:44.401Z,2.70
2022-08-19T22:21:13.680Z,3.67
2022-08-19T22:23:44.554Z,4.35
2022-08-19T22:26:13.580Z,4.28
2022-08-19T22:28:43.076Z,3.95
2022-08-19T22:31:12.536Z,3.65
2022-08-19T22:33:42.370Z,4.15
2022-08-19T22:36:10.960Z,4.88
2022-08-19T22:38:39.317Z,4.10
2022-08-19T22:41:08.088Z,4.50
2022-08-19T22:43:36.887Z,4.55
2022-08-19T22:46:06.478Z,8.50
2022-08-19T22:48:47.987Z,5.30
2022-08-19T22:51:41.561Z,5.35
2022-08-19T22:54:09.755Z,4.82
2022-08-19T22:56:38.113Z,4.88
2022-08-19T22:59:08.537Z,6.50
2022-08-19T23:01:37.006Z,4.90
2022-08-19T23:04:06.973Z,6.82
2022-08-19T23:06:38.138Z,5.00
2022-08-19T23:09:10.381Z,6.32
2022-08-19T23:11:42.235Z,5.55
2022-08-19T23:14:12.691Z,5.60
2022-08-19T23:16:42.014Z,5.57
2022-08-19T23:19:12.206Z,6.70
2022-08-19T23:21:40.979Z,6.15
2022-08-19T23:24:10.073Z,7.95
2022-08-19T23:26:38.671Z,8.52
2022-08-19T23:29:24.740Z,5.50
2022-08-19T23:31:53.084Z,7.78
2022-08-19T23:34:22.853Z,6.55
2022-08-19T23:36:51.516Z,5.97
2022-08-19T23:39:20.111Z,5.57
2022-08-19T23:41:48.404Z,7.95
2022-08-19T23:44:17.253Z,7.68
2022-08-19T23:46:55.052Z,6.57
2022-08-19T23:49:26.223Z,5.22
2022-08-19T23:51:55.503Z,6.57
2022-08-19T23:54:42.953Z,9.10
2022-08-19T23:57:14.126Z,6.85
2022-08-19T23:59:45.418Z,6.57
